createdAt,value
2019-02-19T00:01:30.691Z,90.80
2019-02-19T00:03:59.095Z,91.00
2019-02-19T00:06:27.479Z,91.00
2019-02-19T00:08:55.887Z,91.00
2019-02-19T00:11:24.286Z,91.30
2019-02-19T00:13:52.703Z,91.10
2019-02-19T00:16:21.090Z,91.30
2019-02-19T00:18:49.491Z,90.90
2019-02-19T00:21:17.876Z,91.00
2019-02-19T00:23:46.273Z,90.90
2019-02-19T00:26:16.322Z,91.00
2019-02-19T00:28:44.708Z,91.50
2019-02-19T00:31:13.091Z,91.00
2019-02-19T00:33:41.487Z,91.30
2019-02-19T00:36:09.880Z,91.20
2019-02-19T00:38:38.257Z,91.00
2019-02-19T00:41:06.665Z,91.30
2019-02-19T00:43:35.086Z,91.20
2019-02-19T00:46:03.472Z,91.40
2019-02-19T00:48:31.898Z,91.00
2019-02-19T00:51:00.303Z,91.20
2019-02-19T00:53:28.708Z,91.40
2019-02-19T00:55:57.134Z,90.90
2019-02-19T00:58:25.515Z,91.00
2019-02-19T01:00:53.899Z,91.10
2019-02-19T01:03:23.453Z,91.20
2019-02-19T01:05:52.011Z,91.20
2019-02-19T01:08:20.424Z,91.20
2019-02-19T01:10:48.816Z,91.40
2019-02-19T01:13:17.225Z,91.50
2019-02-19T01:15:47.632Z,91.30
2019-02-19T01:18:15.708Z,91.40
2019-02-19T01:20:44.096Z,91.40
2019-02-19T01:23:12.528Z,91.60
2019-02-19T01:25:40.923Z,91.40
2019-02-19T01:28:09.352Z,91.30
2019-02-19T01:30:37.710Z,91.00
2019-02-19T01:33:06.124Z,91.40
2019-02-19T01:35:34.508Z,91.60
2019-02-19T01:38:02.914Z,91.70
2019-02-19T01:40:31.300Z,91.50
2019-02-19T01:42:59.705Z,91.80
2019-02-19T01:45:33.927Z,90.70
2019-02-19T01:47:58.154Z,90.90
2019-02-19T01:50:26.572Z,91.50
2019-02-19T01:52:54.963Z,91.50
2019-02-19T01:55:23.371Z,91.80
2019-02-19T01:57:51.781Z,91.20
2019-02-19T02:00:20.165Z,91.50
2019-02-19T02:02:48.611Z,91.60
2019-02-19T02:05:17.003Z,91.20
2019-02-19T02:07:45.396Z,91.30
2019-02-19T02:10:13.804Z,91.50
2019-02-19T02:12:42.220Z,91.50
2019-02-19T02:15:10.602Z,91.50
2019-02-19T02:17:39.012Z,91.30
2019-02-19T02:20:07.972Z,91.40
2019-02-19T02:22:36.365Z,91.30
2019-02-19T02:25:04.759Z,91.60
2019-02-19T02:27:33.171Z,91.50
2019-02-19T02:30:01.589Z,92.00
2019-02-19T02:32:29.964Z,91.80
2019-02-19T02:34:58.348Z,91.70
2019-02-19T02:37:26.754Z,91.70
2019-02-19T02:39:55.169Z,91.90
2019-02-19T02:42:23.551Z,91.90
2019-02-19T02:44:51.994Z,91.00
2019-02-19T02:47:20.374Z,91.20
2019-02-19T02:49:48.772Z,91.30
2019-02-19T02:52:17.159Z,91.50
2019-02-19T02:54:45.573Z,91.50
2019-02-19T02:57:13.955Z,91.20
2019-02-19T02:59:42.365Z,91.70
2019-02-19T03:02:10.768Z,91.60
2019-02-19T03:04:39.160Z,91.70
2019-02-19T03:07:09.255Z,92.10
2019-02-19T03:09:37.641Z,91.60
2019-02-19T03:12:06.041Z,91.60
2019-02-19T03:14:34.444Z,91.90
2019-02-19T03:17:02.827Z,91.50
2019-02-19T03:19:31.307Z,91.70
2019-02-19T03:21:59.709Z,91.50
2019-02-19T03:24:28.133Z,91.50
2019-02-19T03:26:56.541Z,91.40
2019-02-19T03:29:24.916Z,91.20
2019-02-19T03:31:53.330Z,91.80
2019-02-19T03:34:21.708Z,91.50
2019-02-19T03:36:50.124Z,91.10
2019-02-19T03:39:18.488Z,91.50
2019-02-19T03:41:46.874Z,91.50
2019-02-19T03:44:15.270Z,91.60
2019-02-19T03:46:43.696Z,91.50
2019-02-19T03:49:12.075Z,91.30
2019-02-19T03:51:40.476Z,91.60
2019-02-19T03:54:08.861Z,91.40
2019-02-19T03:56:37.261Z,91.60
2019-02-19T03:59:05.672Z,91.60
2019-02-19T04:01:34.068Z,91.90
2019-02-19T04:04:02.530Z,91.60
2019-02-19T04:06:32.398Z,91.50
2019-02-19T04:09:00.883Z,91.90
2019-02-19T04:11:29.298Z,91.70
2019-02-19T04:13:57.700Z,91.60
2019-02-19T04:16:26.108Z,91.60
2019-02-19T04:18:54.490Z,91.90
2019-02-19T04:21:22.906Z,91.70
2019-02-19T04:23:51.297Z,91.50
2019-02-19T04:26:19.667Z,91.40
2019-02-19T04:28:48.072Z,92.00
2019-02-19T04:31:16.506Z,92.10
2019-02-19T04:33:44.891Z,91.40
2019-02-19T04:36:13.280Z,91.50
2019-02-19T04:38:41.690Z,91.50
2019-02-19T04:41:10.101Z,91.60
2019-02-19T04:43:38.534Z,91.60
2019-02-19T04:46:06.895Z,91.70
2019-02-19T04:48:35.434Z,91.90
2019-02-19T04:51:03.886Z,92.10
2019-02-19T04:53:32.265Z,92.00
2019-02-19T04:56:00.647Z,91.90
2019-02-19T04:58:29.094Z,91.30
2019-02-19T05:00:57.471Z,91.30
2019-02-19T05:03:25.883Z,91.30
2019-02-19T05:05:54.268Z,91.30
2019-02-19T05:08:22.691Z,91.20
2019-02-19T05:10:51.079Z,91.30
2019-02-19T05:13:19.494Z,91.70
2019-02-19T05:15:47.871Z,91.90
2019-02-19T05:18:16.283Z,91.80
2019-02-19T05:20:44.705Z,92.30
2019-02-19T05:23:13.138Z,92.10
2019-02-19T05:25:41.512Z,92.40
2019-02-19T05:28:09.939Z,91.50
2019-02-19T05:30:38.343Z,91.70
2019-02-19T05:33:06.746Z,91.80
2019-02-19T05:35:35.178Z,91.90
2019-02-19T05:38:03.559Z,92.00
2019-02-19T05:40:31.965Z,92.30
2019-02-19T05:43:01.567Z,91.90
2019-02-19T05:45:30.116Z,92.10
2019-02-19T05:47:58.536Z,91.80
2019-02-19T05:50:26.984Z,91.60
2019-02-19T05:52:55.365Z,91.80
2019-02-19T05:55:23.801Z,91.90
2019-02-19T05:57:52.201Z,92.20
2019-02-19T06:00:20.678Z,92.00
2019-02-19T06:02:49.071Z,91.90
2019-02-19T06:05:17.526Z,91.70
2019-02-19T06:07:45.965Z,92.20
2019-02-19T06:10:14.368Z,92.10
2019-02-19T06:12:42.802Z,92.10
2019-02-19T06:15:11.817Z,91.90
2019-02-19T06:17:40.248Z,91.70
2019-02-19T06:20:09.116Z,91.90
2019-02-19T06:22:37.592Z,92.10
2019-02-19T06:25:08.070Z,91.60
2019-02-19T06:27:36.447Z,91.30
2019-02-19T06:30:08.255Z,92.10
2019-02-19T06:32:36.660Z,91.70
2019-02-19T06:35:05.907Z,91.40
2019-02-19T06:37:34.320Z,91.40
2019-02-19T06:40:03.079Z,91.50
2019-02-19T06:42:31.492Z,91.30
2019-02-19T06:44:59.909Z,91.60
2019-02-19T06:47:28.327Z,92.10
2019-02-19T06:49:56.741Z,91.10
2019-02-19T06:52:25.145Z,91.30
2019-02-19T06:54:53.547Z,91.70
2019-02-19T06:57:21.947Z,91.90
2019-02-19T06:59:50.332Z,92.30
2019-02-19T07:02:38.528Z,91.80
2019-02-19T07:05:08.559Z,91.80
2019-02-19T07:07:36.971Z,91.70
2019-02-19T07:10:06.507Z,91.90
2019-02-19T07:12:34.891Z,91.80
2019-02-19T07:15:03.782Z,92.30
2019-02-19T07:17:32.194Z,92.10
2019-02-19T07:20:00.703Z,92.30
2019-02-19T07:22:29.119Z,92.20
2019-02-19T07:24:57.500Z,92.50
2019-02-19T07:27:25.908Z,91.80
2019-02-19T07:29:54.293Z,92.10
2019-02-19T07:32:22.705Z,92.10
2019-02-19T07:34:51.075Z,92.20
2019-02-19T07:37:19.419Z,91.70
2019-02-19T07:39:47.787Z,91.20
2019-02-19T07:42:16.200Z,91.60
2019-02-19T07:44:44.592Z,92.00
2019-02-19T07:47:13.043Z,92.30
2019-02-19T07:49:41.452Z,92.40
2019-02-19T07:52:09.851Z,92.40
2019-02-19T07:54:38.274Z,91.80
2019-02-19T07:57:06.678Z,92.00
2019-02-19T07:59:35.101Z,92.60
2019-02-19T08:02:03.475Z,93.20
2019-02-19T08:04:31.899Z,92.70
2019-02-19T08:07:00.292Z,92.70
2019-02-19T08:09:28.692Z,92.60
2019-02-19T08:11:57.124Z,92.30
2019-02-19T08:14:25.512Z,92.20
2019-02-19T08:16:53.936Z,91.80
2019-02-19T08:19:22.359Z,91.20
2019-02-19T08:21:50.739Z,91.00
2019-02-19T08:24:19.141Z,90.90
2019-02-19T08:26:47.569Z,90.30
2019-02-19T08:29:15.978Z,90.10
2019-02-19T08:31:44.386Z,89.10
2019-02-19T08:34:12.768Z,88.60
2019-02-19T08:36:41.183Z,88.10
2019-02-19T08:39:09.867Z,87.40
2019-02-19T08:41:38.246Z,87.00
2019-02-19T08:44:08.406Z,86.60
2019-02-19T08:46:36.743Z,85.80
2019-02-19T08:49:05.152Z,85.10
2019-02-19T08:51:33.528Z,85.90
2019-02-19T08:54:01.930Z,84.50
2019-02-19T08:56:30.308Z,83.70
2019-02-19T08:58:58.735Z,82.50
2019-02-19T09:01:27.135Z,82.70
2019-02-19T09:03:55.521Z,82.10
2019-02-19T09:06:23.928Z,81.80
2019-02-19T09:08:52.328Z,81.60
2019-02-19T09:11:20.726Z,81.50
2019-02-19T09:13:49.121Z,81.30
2019-02-19T09:16:17.514Z,80.40
2019-02-19T09:18:45.915Z,80.50
2019-02-19T09:21:14.296Z,80.80
2019-02-19T09:23:42.716Z,80.10
2019-02-19T09:26:11.132Z,79.00
2019-02-19T09:28:39.562Z,79.00
2019-02-19T09:31:07.956Z,77.60
2019-02-19T09:33:36.340Z,78.00
2019-02-19T09:36:04.745Z,76.10
2019-02-19T09:38:33.143Z,76.50
2019-02-19T09:41:01.576Z,75.30
2019-02-19T09:43:35.418Z,73.60
2019-02-19T09:45:59.996Z,72.60
2019-02-19T09:48:28.377Z,71.20
2019-02-19T09:50:56.774Z,71.20
2019-02-19T09:53:25.161Z,70.00
2019-02-19T09:55:53.580Z,68.50
2019-02-19T09:58:21.960Z,67.60
2019-02-19T10:00:50.370Z,67.80
2019-02-19T10:03:19.027Z,63.60
2019-02-19T10:05:48.178Z,63.80
2019-02-19T10:08:16.699Z,62.40
2019-02-19T10:10:45.120Z,62.50
2019-02-19T10:13:14.383Z,62.30
2019-02-19T10:15:42.799Z,61.60
2019-02-19T10:18:11.193Z,62.20
2019-02-19T10:20:39.604Z,62.80
2019-02-19T10:23:07.996Z,61.70
2019-02-19T10:25:36.384Z,61.00
2019-02-19T10:28:05.037Z,63.00
2019-02-19T10:30:33.464Z,61.80
2019-02-19T10:33:01.916Z,62.40
2019-02-19T10:35:30.295Z,62.40
2019-02-19T10:37:58.682Z,62.40
2019-02-19T10:40:27.112Z,63.80
2019-02-19T10:42:55.482Z,60.80
2019-02-19T10:45:25.342Z,61.10
2019-02-19T10:47:53.725Z,62.50
2019-02-19T10:50:22.162Z,61.80
2019-02-19T10:52:51.766Z,61.00
2019-02-19T10:55:20.253Z,61.10
2019-02-19T10:57:48.643Z,62.10
2019-02-19T11:00:20.844Z,62.40
2019-02-19T11:02:49.226Z,60.60
2019-02-19T11:05:17.619Z,60.80
2019-02-19T11:07:46.048Z,57.40
2019-02-19T11:10:14.949Z,54.40
2019-02-19T11:12:46.209Z,54.70
2019-02-19T11:15:17.322Z,55.20
2019-02-19T11:17:45.427Z,55.40
2019-02-19T11:20:16.529Z,54.90
2019-02-19T11:22:44.991Z,52.90
2019-02-19T11:25:13.480Z,54.80
2019-02-19T11:27:43.572Z,53.50
2019-02-19T11:30:20.237Z,54.10
2019-02-19T11:32:46.987Z,53.20
2019-02-19T11:35:18.832Z,52.80
2019-02-19T11:37:47.264Z,52.20
2019-02-19T11:40:17.313Z,51.40
2019-02-19T11:42:47.443Z,51.60
2019-02-19T11:45:17.452Z,52.50
2019-02-19T11:47:45.832Z,51.80
2019-02-19T11:50:14.236Z,51.80
2019-02-19T11:52:42.614Z,51.30
2019-02-19T11:55:16.596Z,51.50
2019-02-19T11:57:44.974Z,52.00
2019-02-19T12:00:18.248Z,52.00
2019-02-19T12:02:46.647Z,52.00
2019-02-19T12:05:15.035Z,51.70
2019-02-19T12:07:43.500Z,52.50
2019-02-19T12:10:12.217Z,52.50
2019-02-19T12:12:40.698Z,51.30
2019-02-19T12:15:13.145Z,51.80
2019-02-19T12:17:41.554Z,52.10
2019-02-19T12:20:12.557Z,51.80
2019-02-19T12:22:40.971Z,52.60
2019-02-19T12:25:09.891Z,52.50
2019-02-19T12:27:38.261Z,52.90
2019-02-19T12:30:12.788Z,51.30
2019-02-19T12:32:41.187Z,49.90
2019-02-19T12:35:09.855Z,51.00
2019-02-19T12:37:38.269Z,51.40
2019-02-19T12:40:09.414Z,51.10
2019-02-19T12:42:37.808Z,50.50
2019-02-19T12:45:11.967Z,51.40
2019-02-19T12:47:40.362Z,50.00
2019-02-19T12:50:11.659Z,49.90
2019-02-19T12:52:40.073Z,50.50
2019-02-19T12:55:09.540Z,50.00
2019-02-19T12:57:37.919Z,50.60
2019-02-19T13:00:15.011Z,51.40
2019-02-19T13:02:44.078Z,51.50
2019-02-19T13:05:14.215Z,52.20
2019-02-19T13:07:42.596Z,52.70
2019-02-19T13:10:11.977Z,52.10
2019-02-19T13:12:40.360Z,51.80
2019-02-19T13:15:17.376Z,51.60
2019-02-19T13:17:45.771Z,52.40
2019-02-19T13:20:14.758Z,51.60
2019-02-19T13:22:43.176Z,51.20
2019-02-19T13:25:12.051Z,51.50
2019-02-19T13:27:40.479Z,51.90
2019-02-19T13:30:19.192Z,51.20
2019-02-19T13:32:47.611Z,51.70
2019-02-19T13:35:17.385Z,51.70
2019-02-19T13:37:45.931Z,52.70
2019-02-19T13:40:16.428Z,52.60
2019-02-19T13:42:44.835Z,51.90
2019-02-19T13:45:16.156Z,52.70
2019-02-19T13:47:44.546Z,52.50
2019-02-19T13:50:19.023Z,52.80
2019-02-19T13:52:51.736Z,53.00
2019-02-19T13:55:21.884Z,53.00
2019-02-19T13:57:50.936Z,54.40
2019-02-19T14:00:24.189Z,54.00
2019-02-19T14:02:52.776Z,53.20
2019-02-19T14:05:21.188Z,53.10
2019-02-19T14:07:49.593Z,53.30
2019-02-19T14:10:17.973Z,53.70
2019-02-19T14:12:46.429Z,53.70
2019-02-19T14:15:33.278Z,53.40
2019-02-19T14:18:02.759Z,53.70
2019-02-19T14:20:32.825Z,53.70
2019-02-19T14:23:05.548Z,53.60
2019-02-19T14:25:35.581Z,54.20
2019-02-19T14:28:08.647Z,54.90
2019-02-19T14:30:45.961Z,55.50
2019-02-19T14:33:31.185Z,54.90
2019-02-19T14:36:13.535Z,55.20
2019-02-19T14:38:55.918Z,56.10
2019-02-19T14:41:25.980Z,56.50
2019-02-19T14:44:05.319Z,56.70
2019-02-19T14:46:38.195Z,56.80
2019-02-19T14:49:10.877Z,57.60
2019-02-19T14:51:40.927Z,57.80
2019-02-19T14:54:10.966Z,58.50
2019-02-19T14:56:41.035Z,58.30
2019-02-19T14:59:13.470Z,58.80
2019-02-19T15:01:59.806Z,58.90
2019-02-19T15:04:36.052Z,59.80
2019-02-19T15:07:06.140Z,61.20
2019-02-19T15:09:38.688Z,61.10
2019-02-19T15:12:11.731Z,61.80
2019-02-19T15:14:41.939Z,61.60
2019-02-19T15:17:14.869Z,62.50
2019-02-19T15:19:44.979Z,62.30
2019-02-19T15:22:20.676Z,63.40
2019-02-19T15:25:07.287Z,63.10
2019-02-19T15:27:37.344Z,63.00
2019-02-19T15:30:25.895Z,64.00
2019-02-19T15:32:55.919Z,63.10
2019-02-19T15:35:25.987Z,63.00
2019-02-19T15:37:56.031Z,63.70
2019-02-19T15:40:28.907Z,63.90
2019-02-19T15:42:59.111Z,64.60
2019-02-19T15:45:50.990Z,64.30
2019-02-19T15:48:27.095Z,64.20
2019-02-19T15:50:57.135Z,64.80
2019-02-19T15:53:27.174Z,65.00
2019-02-19T15:55:59.938Z,65.10
2019-02-19T15:58:48.335Z,65.10
2019-02-19T16:01:18.373Z,65.20
2019-02-19T16:03:48.421Z,65.10
2019-02-19T16:06:18.466Z,65.70
2019-02-19T16:08:48.499Z,65.40
2019-02-19T16:11:24.439Z,65.60
2019-02-19T16:13:55.571Z,66.60
2019-02-19T16:16:37.419Z,65.90
2019-02-19T16:19:07.486Z,67.30
2019-02-19T16:21:49.379Z,66.80
2019-02-19T16:24:22.266Z,66.60
2019-02-19T16:27:04.109Z,67.40
2019-02-19T16:29:50.629Z,68.20
2019-02-19T16:32:20.655Z,68.30
2019-02-19T16:34:59.562Z,68.00
2019-02-19T16:37:46.003Z,68.40
2019-02-19T16:40:25.030Z,68.90
2019-02-19T16:42:58.047Z,69.00
2019-02-19T16:45:34.130Z,69.80
2019-02-19T16:48:04.199Z,69.00
2019-02-19T16:50:37.379Z,70.30
2019-02-19T16:53:19.214Z,71.60
2019-02-19T16:55:55.007Z,72.70
2019-02-19T16:58:40.157Z,73.40
2019-02-19T17:01:28.851Z,75.00
2019-02-19T17:04:08.130Z,76.50
2019-02-19T17:06:38.251Z,76.80
2019-02-19T17:09:14.005Z,77.10
2019-02-19T17:11:55.510Z,78.10
2019-02-19T17:14:33.303Z,77.50
2019-02-19T17:17:02.136Z,78.00
2019-02-19T17:19:32.159Z,78.30
2019-02-19T17:22:18.402Z,77.70
2019-02-19T17:24:52.982Z,78.60
2019-02-19T17:27:37.996Z,81.80
2019-02-19T17:30:13.957Z,82.80
2019-02-19T17:32:44.048Z,84.20
2019-02-19T17:35:16.618Z,85.70
2019-02-19T17:37:52.389Z,86.60
2019-02-19T17:40:28.174Z,87.70
2019-02-19T17:43:01.208Z,87.80
2019-02-19T17:45:34.163Z,90.20
2019-02-19T17:48:20.624Z,90.20
2019-02-19T17:50:50.676Z,90.20
2019-02-19T17:53:29.418Z,90.40
2019-02-19T17:56:05.478Z,90.40
2019-02-19T17:58:35.641Z,91.10
2019-02-19T18:01:08.182Z,91.30
2019-02-19T18:03:38.201Z,91.70
2019-02-19T18:06:14.360Z,91.50
2019-02-19T18:08:51.526Z,91.70
2019-02-19T18:11:24.572Z,91.70
2019-02-19T18:13:54.585Z,91.40
2019-02-19T18:16:33.621Z,91.20
2019-02-19T18:19:01.987Z,91.40
2019-02-19T18:21:30.413Z,91.40
2019-02-19T18:23:59.029Z,91.00
2019-02-19T18:26:27.446Z,91.30
2019-02-19T18:28:55.822Z,91.10
2019-02-19T18:31:24.241Z,90.90
2019-02-19T18:33:52.657Z,90.60
2019-02-19T18:36:21.315Z,90.90
2019-02-19T18:38:51.523Z,90.70
2019-02-19T18:41:19.957Z,90.60
2019-02-19T18:43:48.353Z,90.70
2019-02-19T18:46:16.744Z,90.60
2019-02-19T18:48:45.217Z,90.70
2019-02-19T18:51:16.416Z,90.50
2019-02-19T18:53:44.847Z,90.70
2019-02-19T18:56:13.299Z,90.60
2019-02-19T18:58:41.946Z,90.90
2019-02-19T19:01:10.323Z,90.70
2019-02-19T19:03:38.698Z,90.60
2019-02-19T19:06:07.129Z,90.70
2019-02-19T19:08:35.519Z,90.70
2019-02-19T19:11:03.908Z,91.00
2019-02-19T19:13:32.354Z,90.60
2019-02-19T19:16:00.738Z,90.40
2019-02-19T19:18:29.249Z,90.00
2019-02-19T19:20:57.594Z,90.00
2019-02-19T19:23:26.009Z,90.20
2019-02-19T19:25:54.391Z,90.30
2019-02-19T19:28:22.823Z,90.10
2019-02-19T19:30:51.295Z,90.30
2019-02-19T19:33:19.733Z,90.10
2019-02-19T19:35:48.096Z,90.00
2019-02-19T19:38:16.482Z,90.00
2019-02-19T19:40:45.046Z,89.80
2019-02-19T19:43:13.391Z,89.60
2019-02-19T19:45:41.812Z,89.70
2019-02-19T19:48:10.221Z,89.60
2019-02-19T19:50:38.650Z,90.00
2019-02-19T19:53:07.047Z,90.20
2019-02-19T19:55:35.433Z,90.10
2019-02-19T19:58:03.816Z,90.30
2019-02-19T20:00:32.217Z,90.20
2019-02-19T20:03:00.613Z,90.30
2019-02-19T20:05:30.119Z,90.20
2019-02-19T20:07:59.196Z,90.30
2019-02-19T20:10:27.573Z,90.40
2019-02-19T20:12:56.028Z,90.30
2019-02-19T20:15:24.416Z,90.50
2019-02-19T20:17:55.441Z,90.40
2019-02-19T20:20:24.946Z,90.30
2019-02-19T20:22:53.327Z,90.40
2019-02-19T20:25:21.743Z,90.50
2019-02-19T20:27:50.129Z,90.50
2019-02-19T20:30:18.537Z,90.50
2019-02-19T20:32:46.942Z,90.40
2019-02-19T20:35:18.453Z,90.40
2019-02-19T20:37:53.680Z,90.60
2019-02-19T20:40:16.920Z,90.70
2019-02-19T20:42:45.375Z,90.80
2019-02-19T20:45:15.449Z,90.80
2019-02-19T20:47:45.971Z,90.80
2019-02-19T20:50:14.390Z,90.90
2019-02-19T20:52:42.983Z,91.00
2019-02-19T20:55:11.870Z,91.00
2019-02-19T20:57:40.297Z,91.20
2019-02-19T21:00:19.531Z,91.00
2019-02-19T21:02:47.937Z,91.20
2019-02-19T21:05:16.320Z,91.00
2019-02-19T21:07:44.712Z,91.00
2019-02-19T21:10:17.650Z,91.00
2019-02-19T21:12:48.395Z,91.20
2019-02-19T21:15:16.952Z,91.10
2019-02-19T21:17:45.398Z,91.30
2019-02-19T21:20:13.777Z,91.30
2019-02-19T21:22:42.185Z,91.40
2019-02-19T21:25:11.377Z,91.50
2019-02-19T21:27:39.755Z,91.70
2019-02-19T21:30:13.946Z,91.50
2019-02-19T21:32:42.377Z,91.50
2019-02-19T21:35:10.830Z,91.50
2019-02-19T21:37:39.923Z,91.30
2019-02-19T21:40:16.604Z,91.50
2019-02-19T21:42:46.640Z,91.30
2019-02-19T21:45:17.328Z,91.40
2019-02-19T21:47:45.803Z,91.60
2019-02-19T21:50:15.717Z,91.60
2019-02-19T21:52:44.392Z,91.60
2019-02-19T21:55:13.216Z,91.80
2019-02-19T21:57:41.617Z,91.60
2019-02-19T22:00:16.091Z,91.70
2019-02-19T22:02:43.740Z,91.70
2019-02-19T22:05:12.159Z,91.80
2019-02-19T22:07:40.551Z,91.80
2019-02-19T22:10:13.379Z,91.70
2019-02-19T22:12:41.819Z,91.70
2019-02-19T22:15:16.114Z,91.90
2019-02-19T22:17:44.549Z,91.60
2019-02-19T22:20:33.588Z,91.60
2019-02-19T22:23:02.033Z,91.60
2019-02-19T22:25:30.441Z,91.70
2019-02-19T22:27:58.776Z,91.40
2019-02-19T22:30:27.163Z,91.30
2019-02-19T22:32:55.573Z,91.30
2019-02-19T22:35:23.951Z,91.20
2019-02-19T22:37:52.381Z,91.10
2019-02-19T22:40:20.868Z,91.00
2019-02-19T22:42:49.242Z,90.90
2019-02-19T22:45:17.776Z,91.20
2019-02-19T22:47:53.143Z,91.10
2019-02-19T22:50:16.402Z,91.20
2019-02-19T22:52:44.861Z,91.20
2019-02-19T22:55:33.245Z,91.20
2019-02-19T22:58:01.645Z,91.30
2019-02-19T23:00:39.480Z,91.10
2019-02-19T23:03:08.113Z,91.00
2019-02-19T23:05:36.504Z,91.20
2019-02-19T23:08:04.915Z,91.00
2019-02-19T23:10:33.741Z,90.80
2019-02-19T23:13:02.190Z,90.90
2019-02-19T23:15:30.594Z,91.10
2019-02-19T23:17:59.002Z,91.00
2019-02-19T23:20:27.471Z,90.80
2019-02-19T23:22:55.881Z,90.70
2019-02-19T23:25:24.337Z,90.60
2019-02-19T23:27:52.764Z,90.60
2019-02-19T23:30:21.144Z,90.50
2019-02-19T23:32:49.558Z,90.70
2019-02-19T23:35:36.091Z,90.80
2019-02-19T23:38:04.509Z,90.50
2019-02-19T23:40:32.923Z,90.30
2019-02-19T23:43:01.314Z,90.80
2019-02-19T23:45:29.729Z,90.70
2019-02-19T23:47:58.159Z,90.60
2019-02-19T23:50:26.534Z,90.70
2019-02-19T23:52:54.919Z,90.60
2019-02-19T23:55:23.595Z,90.50
2019-02-19T23:57:52.006Z,90.40
